createdAt,value
2023-03-02T00:09:24.263Z,1011.4
2023-03-02T00:19:24.169Z,1011.5
2023-03-02T00:29:24.178Z,1011.4
2023-03-02T00:39:24.285Z,1011.4
2023-03-02T00:49:24.152Z,1011.4
2023-03-02T00:59:24.110Z,1011.4
2023-03-02T01:09:24.051Z,1011.4
2023-03-02T01:19:24.075Z,1011.3
2023-03-02T01:29:24.133Z,1011.1
2023-03-02T01:39:24.035Z,1011
2023-03-02T01:49:24.043Z,1010.8
2023-03-02T01:59:24.016Z,1010.7
2023-03-02T02:09:23.977Z,1010.7
2023-03-02T02:19:23.945Z,1010.7
2023-03-02T02:29:23.921Z,1010.7
2023-03-02T02:39:23.865Z,1010.6
2023-03-02T02:49:23.755Z,1010.6
2023-03-02T02:59:23.707Z,1010.6
2023-03-02T03:09:23.694Z,1010.5
2023-03-02T03:19:23.695Z,1010.6
2023-03-02T03:29:23.649Z,1010.5
2023-03-02T03:39:23.805Z,1010.4
2023-03-02T03:49:22.210Z,1010.4
2023-03-02T03:59:22.163Z,1010.4
2023-03-02T04:09:22.147Z,1010.4
2023-03-02T04:19:22.170Z,1010.3
2023-03-02T04:29:22.105Z,1010.4
2023-03-02T04:39:22.119Z,1010.4
2023-03-02T04:49:22.098Z,1010.3
2023-03-02T04:59:22.069Z,1010.3
2023-03-02T05:09:22.056Z,1010.3
2023-03-02T05:19:22.044Z,1010.3
2023-03-02T05:29:22.017Z,1010.4
2023-03-02T05:39:22.000Z,1010.3
2023-03-02T05:49:22.057Z,1010.3
2023-03-02T05:59:21.970Z,1010.3
2023-03-02T06:09:21.946Z,1010.4
2023-03-02T06:19:21.929Z,1010.4
2023-03-02T06:29:22.050Z,1010.5
2023-03-02T06:39:21.886Z,1010.6
2023-03-02T06:49:21.881Z,1010.6
2023-03-02T06:59:21.865Z,1010.7
2023-03-02T07:09:21.885Z,1010.7
2023-03-02T07:19:21.832Z,1010.7
2023-03-02T07:29:21.800Z,1010.6
2023-03-02T07:39:21.789Z,1010.6
2023-03-02T07:49:21.761Z,1010.6
2023-03-02T07:59:21.756Z,1010.6
2023-03-02T08:09:21.717Z,1010.6
2023-03-02T08:19:21.709Z,1010.7
2023-03-02T08:29:21.670Z,1010.7
2023-03-02T08:39:21.636Z,1010.6
2023-03-02T08:49:21.616Z,1010.5
2023-03-02T08:59:21.589Z,1010.5
2023-03-02T09:09:21.571Z,1010.4
2023-03-02T09:19:21.558Z,1010.4
2023-03-02T09:29:21.522Z,1010.3
2023-03-02T09:39:21.491Z,1010.2
2023-03-02T09:49:21.467Z,1010.2
2023-03-02T09:59:21.438Z,1010.2
2023-03-02T10:09:21.444Z,1010.1
2023-03-02T10:19:21.401Z,1010
2023-03-02T10:29:21.395Z,1010
2023-03-02T10:39:21.378Z,1010
2023-03-02T10:49:21.313Z,1009.9
2023-03-02T10:59:21.272Z,1009.8
2023-03-02T11:09:21.243Z,1009.7
2023-03-02T11:19:21.228Z,1009.6
2023-03-02T11:29:21.254Z,1009.6
2023-03-02T11:39:21.166Z,1009.5
2023-03-02T11:49:21.134Z,1009.5
2023-03-02T11:59:21.255Z,1009.4
2023-03-02T12:09:21.225Z,1009.3
2023-03-02T12:19:21.195Z,1009.2
2023-03-02T12:29:21.131Z,1009.1
2023-03-02T12:39:21.124Z,1009
2023-03-02T12:49:20.958Z,1009
2023-03-02T12:59:21.092Z,1008.8
2023-03-02T13:09:20.900Z,1008.6
2023-03-02T13:19:20.866Z,1008.5
2023-03-02T13:29:20.828Z,1008.5
2023-03-02T13:39:20.809Z,1008.4
2023-03-02T13:49:20.844Z,1008.3
2023-03-02T13:59:20.790Z,1008.2
2023-03-02T14:09:20.773Z,1008.2
2023-03-02T14:19:20.685Z,1008.1
2023-03-02T14:29:20.641Z,1008.1
2023-03-02T14:39:20.748Z,1008
2023-03-02T14:49:20.589Z,1007.9
2023-03-02T14:59:20.535Z,1007.9
2023-03-02T15:09:20.515Z,1007.9
2023-03-02T15:19:20.482Z,1007.8
2023-03-02T15:29:20.571Z,1007.9
2023-03-02T15:39:20.493Z,1007.9
2023-03-02T15:49:20.456Z,1008
2023-03-02T15:59:20.382Z,1008
2023-03-02T16:09:20.383Z,1008
2023-03-02T16:19:20.330Z,1008.1
2023-03-02T16:29:20.259Z,1008.1
2023-03-02T16:39:20.291Z,1008.2
2023-03-02T16:49:20.206Z,1008.3
2023-03-02T16:59:20.236Z,1008.4
2023-03-02T17:09:20.146Z,1008.5
2023-03-02T17:19:20.547Z,1008.6
2023-03-02T17:29:20.084Z,1008.7
2023-03-02T17:39:20.061Z,1008.8
2023-03-02T17:49:20.071Z,1008.9
2023-03-02T17:59:20.010Z,1009
2023-03-02T18:09:19.959Z,1009
2023-03-02T18:19:19.940Z,1009.1
2023-03-02T18:29:19.892Z,1009.2
2023-03-02T18:39:19.850Z,1009.3
2023-03-02T18:49:19.966Z,1009.4
2023-03-02T18:59:19.798Z,1009.4
2023-03-02T19:09:19.780Z,1009.5
2023-03-02T19:29:19.756Z,1009.6
2023-03-02T19:39:19.737Z,1009.6
2023-03-02T19:49:19.668Z,1009.8
2023-03-02T19:59:19.649Z,1009.9
2023-03-02T20:09:19.678Z,1009.9
2023-03-02T20:19:19.586Z,1009.8
2023-03-02T20:29:19.585Z,1009.9
2023-03-02T20:39:19.546Z,1010
2023-03-02T20:49:19.575Z,1010.1
2023-03-02T20:59:19.500Z,1010.2
2023-03-02T21:09:19.524Z,1010.3
2023-03-02T21:19:19.503Z,1010.2
2023-03-02T21:29:19.426Z,1010.2
2023-03-02T21:39:19.422Z,1010.2
2023-03-02T21:49:19.379Z,1010.2
2023-03-02T21:59:19.351Z,1010.2
2023-03-02T22:09:19.388Z,1010.2
2023-03-02T22:19:19.289Z,1010.1
2023-03-02T22:29:19.261Z,1010.1
2023-03-02T22:39:19.222Z,1010.1
2023-03-02T22:49:19.269Z,1010
2023-03-02T22:59:19.230Z,1010
2023-03-02T23:09:19.169Z,1010.2
2023-03-02T23:19:19.122Z,1010.3
2023-03-02T23:29:19.128Z,1010.3
2023-03-02T23:39:19.076Z,1010.3
2023-03-02T23:49:19.067Z,1010.3
2023-03-02T23:59:19.035Z,1010.4
